createdAt,value
2022-11-24T00:17:57.491Z,280
2022-11-24T00:37:57.479Z,272
2022-11-24T00:57:57.462Z,273
2022-11-24T01:17:57.427Z,264
2022-11-24T01:37:57.420Z,274
2022-11-24T01:57:57.390Z,260
2022-11-24T02:17:57.378Z,262
2022-11-24T02:57:57.348Z,239
2022-11-24T03:17:57.325Z,264
2022-11-24T03:37:57.304Z,256
2022-11-24T03:57:57.319Z,254
2022-11-24T04:17:57.292Z,265
2022-11-24T04:37:57.256Z,265
2022-11-24T04:57:57.048Z,262
2022-11-24T05:17:57.240Z,257
2022-11-24T05:37:57.199Z,256
2022-11-24T05:57:57.181Z,257
2022-11-24T06:17:57.199Z,242
2022-11-24T06:37:57.139Z,253
2022-11-24T06:57:57.183Z,271
2022-11-24T07:17:56.908Z,268
2022-11-24T07:37:57.137Z,271
2022-11-24T07:57:56.890Z,261
2022-11-24T08:17:57.093Z,263
2022-11-24T08:37:59.190Z,270
2022-11-24T08:57:57.064Z,257
2022-11-24T09:17:56.995Z,255
2022-11-24T09:37:56.984Z,253
2022-11-24T09:57:56.959Z,261
2022-11-24T10:17:56.933Z,263
2022-11-24T10:37:56.931Z,260
2022-11-24T10:57:56.916Z,258
2022-11-24T11:17:56.386Z,279
2022-11-24T11:37:56.851Z,270
2022-11-24T11:57:56.858Z,260
2022-11-24T12:17:56.622Z,263
2022-11-24T12:37:56.777Z,275
2022-11-24T12:57:56.752Z,271
2022-11-24T13:18:07.063Z,265
2022-11-24T13:37:56.722Z,263
2022-11-24T13:57:56.701Z,271
2022-11-24T14:17:56.662Z,264
2022-11-24T14:37:56.639Z,260
2022-11-24T14:57:56.648Z,272
2022-11-24T15:17:56.440Z,262
2022-11-24T15:37:56.604Z,251
2022-11-24T15:57:56.570Z,247
2022-11-24T16:17:56.563Z,250
2022-11-24T16:37:56.531Z,249
2022-11-24T16:57:56.508Z,238
2022-11-24T17:18:22.741Z,237
2022-11-24T17:37:56.475Z,246
2022-11-24T17:57:56.478Z,247
2022-11-24T18:17:56.463Z,247
2022-11-24T18:37:56.226Z,246
2022-11-24T18:57:55.922Z,258
2022-11-24T19:17:56.389Z,248
2022-11-24T19:37:56.389Z,245
2022-11-24T19:57:56.364Z,246
2022-11-24T20:17:56.392Z,255
2022-11-24T20:37:55.834Z,256
2022-11-24T20:57:56.338Z,242
2022-11-24T21:17:56.317Z,232
2022-11-24T21:37:56.286Z,249
2022-11-24T21:57:56.281Z,248
2022-11-24T22:17:55.751Z,245
2022-11-24T22:37:56.238Z,252
2022-11-24T22:57:57.140Z,246
2022-11-24T23:17:56.202Z,242
2022-11-24T23:38:07.306Z,242
2022-11-24T23:57:56.197Z,245
